createdAt,value
2017-11-17T00:02:08.487Z,2.10
2017-11-17T00:04:43.271Z,2.10
2017-11-17T00:07:12.191Z,2.30
2017-11-17T00:09:40.387Z,2.30
2017-11-17T00:12:08.540Z,2.30
2017-11-17T00:14:41.655Z,2.20
2017-11-17T00:17:10.447Z,2.30
2017-11-17T00:19:38.598Z,2.20
2017-11-17T00:22:06.761Z,2.30
2017-11-17T00:24:36.107Z,2.30
2017-11-17T00:27:04.745Z,2.30
2017-11-17T00:29:32.884Z,2.30
2017-11-17T00:32:01.507Z,2.20
2017-11-17T00:34:36.128Z,2.10
2017-11-17T00:37:09.022Z,2.00
2017-11-17T00:39:37.192Z,2.10
2017-11-17T00:42:11.192Z,2.10
2017-11-17T00:44:39.374Z,2.30
2017-11-17T00:47:07.793Z,2.30
2017-11-17T00:49:35.990Z,2.40
2017-11-17T00:52:04.156Z,2.40
2017-11-17T00:54:32.321Z,2.40
2017-11-17T00:57:00.496Z,2.50
2017-11-17T00:59:28.672Z,2.60
2017-11-17T01:01:56.817Z,2.70
2017-11-17T01:04:25.990Z,2.30
2017-11-17T01:06:54.163Z,2.30
2017-11-17T01:09:22.307Z,2.30
2017-11-17T01:11:50.483Z,2.20
2017-11-17T01:14:25.341Z,2.10
2017-11-17T01:16:57.221Z,2.20
2017-11-17T01:19:25.373Z,2.30
2017-11-17T01:21:53.570Z,2.30
2017-11-17T01:24:23.679Z,2.30
2017-11-17T01:26:51.853Z,2.30
2017-11-17T01:29:20.027Z,2.40
2017-11-17T01:31:48.178Z,2.40
2017-11-17T01:34:21.495Z,2.30
2017-11-17T01:36:49.644Z,2.30
2017-11-17T01:39:18.677Z,2.20
2017-11-17T01:41:46.838Z,2.20
2017-11-17T01:44:15.817Z,2.10
2017-11-17T01:46:43.967Z,2.10
2017-11-17T01:49:12.152Z,2.10
2017-11-17T01:51:41.088Z,2.10
2017-11-17T01:54:09.334Z,2.10
2017-11-17T01:56:37.497Z,2.10
2017-11-17T01:59:06.415Z,2.20
2017-11-17T02:01:34.591Z,2.20
2017-11-17T02:04:02.852Z,2.20
2017-11-17T02:06:31.019Z,2.20
2017-11-17T02:08:59.936Z,2.30
2017-11-17T02:11:28.110Z,2.30
2017-11-17T02:13:56.359Z,2.50
2017-11-17T02:16:24.523Z,2.60
2017-11-17T02:18:53.460Z,2.60
2017-11-17T02:21:21.620Z,2.60
2017-11-17T02:23:50.582Z,2.50
2017-11-17T02:26:20.273Z,1.40
2017-11-17T02:28:48.442Z,2.40
2017-11-17T02:31:16.613Z,2.30
2017-11-17T02:33:44.826Z,2.30
2017-11-17T02:36:12.998Z,2.40
2017-11-17T02:38:41.941Z,2.50
2017-11-17T02:41:10.117Z,2.40
2017-11-17T02:43:38.345Z,2.50
2017-11-17T02:46:06.495Z,2.50
2017-11-17T02:48:35.429Z,2.10
2017-11-17T02:51:03.603Z,2.10
2017-11-17T02:53:31.869Z,2.10
2017-11-17T02:56:00.021Z,2.20
2017-11-17T02:58:28.950Z,2.50
2017-11-17T03:00:57.113Z,2.50
2017-11-17T03:03:26.324Z,2.60
2017-11-17T03:05:54.485Z,2.70
2017-11-17T03:08:22.641Z,2.70
2017-11-17T03:10:51.802Z,2.80
2017-11-17T03:13:20.215Z,2.80
2017-11-17T03:15:49.134Z,2.70
2017-11-17T03:18:17.293Z,2.70
2017-11-17T03:20:45.446Z,2.60
2017-11-17T03:23:14.665Z,2.50
2017-11-17T03:25:42.822Z,2.60
2017-11-17T03:28:11.767Z,2.60
2017-11-17T03:30:39.954Z,2.60
2017-11-17T03:33:08.178Z,2.60
2017-11-17T03:35:36.579Z,2.70
2017-11-17T03:38:04.730Z,2.70
2017-11-17T03:40:32.884Z,2.70
2017-11-17T03:43:01.913Z,2.70
2017-11-17T03:45:30.072Z,2.70
2017-11-17T03:47:58.244Z,2.70
2017-11-17T03:50:26.443Z,2.70
2017-11-17T03:52:56.640Z,2.70
2017-11-17T03:55:24.794Z,2.80
2017-11-17T03:57:53.720Z,3.00
2017-11-17T04:00:22.511Z,3.00
2017-11-17T04:02:56.976Z,2.90
2017-11-17T04:05:25.157Z,2.80
2017-11-17T04:07:56.641Z,2.60
2017-11-17T04:10:24.814Z,2.70
2017-11-17T04:12:53.103Z,2.70
2017-11-17T04:15:21.256Z,2.80
2017-11-17T04:17:50.177Z,3.00
2017-11-17T04:20:19.118Z,3.00
2017-11-17T04:22:47.262Z,3.00
2017-11-17T04:25:15.464Z,3.10
2017-11-17T04:27:43.632Z,3.10
2017-11-17T04:30:11.866Z,3.10
2017-11-17T04:32:40.225Z,3.00
2017-11-17T04:35:08.381Z,3.00
2017-11-17T04:37:37.938Z,3.10
2017-11-17T04:40:06.109Z,3.10
2017-11-17T04:42:34.312Z,3.10
2017-11-17T04:45:03.194Z,3.10
2017-11-17T04:47:31.351Z,3.00
2017-11-17T04:50:00.475Z,2.80
2017-11-17T04:52:28.671Z,2.70
2017-11-17T04:54:56.910Z,2.80
2017-11-17T04:57:25.083Z,2.90
2017-11-17T04:59:53.255Z,3.00
2017-11-17T05:02:21.430Z,3.00
2017-11-17T05:04:50.582Z,3.00
2017-11-17T05:07:18.754Z,3.10
2017-11-17T05:09:46.922Z,3.20
2017-11-17T05:12:15.094Z,3.20
2017-11-17T05:14:46.192Z,3.00
2017-11-17T05:17:16.300Z,3.00
2017-11-17T05:19:45.020Z,3.00
2017-11-17T05:22:13.214Z,3.00
2017-11-17T05:24:41.568Z,3.10
2017-11-17T05:27:09.789Z,3.20
2017-11-17T05:29:37.952Z,3.30
2017-11-17T05:32:06.110Z,3.40
2017-11-17T05:34:42.068Z,3.60
2017-11-17T05:37:11.016Z,3.40
2017-11-17T05:39:41.197Z,3.40
2017-11-17T05:42:09.362Z,3.40
2017-11-17T05:44:41.836Z,3.40
2017-11-17T05:47:10.265Z,3.40
2017-11-17T05:49:38.432Z,3.50
2017-11-17T05:52:06.605Z,3.60
2017-11-17T05:54:35.494Z,3.70
2017-11-17T05:57:03.672Z,3.60
2017-11-17T05:59:32.059Z,3.50
2017-11-17T06:02:00.275Z,3.30
2017-11-17T06:04:33.047Z,3.20
2017-11-17T06:07:08.956Z,3.20
2017-11-17T06:09:37.230Z,3.20
2017-11-17T06:15:03.792Z,3.20
2017-11-17T06:17:35.325Z,3.20
2017-11-17T06:20:03.502Z,3.10
2017-11-17T06:22:32.374Z,3.00
2017-11-17T06:25:02.946Z,3.00
2017-11-17T06:27:31.186Z,2.90
2017-11-17T06:29:59.503Z,2.90
2017-11-17T06:32:27.755Z,3.00
2017-11-17T06:34:56.088Z,3.10
2017-11-17T06:37:24.365Z,3.20
2017-11-17T06:39:52.569Z,3.30
2017-11-17T06:42:21.387Z,3.40
2017-11-17T06:44:49.701Z,3.10
2017-11-17T06:47:19.076Z,3.10
2017-11-17T06:49:47.351Z,3.20
2017-11-17T06:52:15.753Z,3.30
2017-11-17T06:54:47.753Z,3.40
2017-11-17T06:57:16.001Z,3.50
2017-11-17T06:59:44.316Z,3.60
2017-11-17T07:02:12.821Z,3.70
2017-11-17T07:04:41.128Z,3.70
2017-11-17T07:07:09.330Z,3.60
2017-11-17T07:09:37.529Z,3.60
2017-11-17T07:12:05.768Z,3.60
2017-11-17T07:14:34.913Z,3.60
2017-11-17T07:17:03.112Z,3.70
2017-11-17T07:19:31.472Z,3.80
2017-11-17T07:22:00.637Z,3.80
2017-11-17T07:24:30.764Z,3.60
2017-11-17T07:26:59.862Z,3.50
2017-11-17T07:29:28.899Z,3.40
2017-11-17T07:31:57.244Z,3.40
2017-11-17T07:34:25.515Z,3.40
2017-11-17T07:36:54.481Z,3.40
2017-11-17T07:39:22.692Z,3.60
2017-11-17T07:41:50.926Z,3.60
2017-11-17T07:44:19.290Z,3.70
2017-11-17T07:46:48.426Z,3.70
2017-11-17T07:49:17.469Z,3.80
2017-11-17T07:51:46.508Z,3.80
2017-11-17T07:54:16.915Z,3.80
2017-11-17T07:56:45.874Z,3.90
2017-11-17T07:59:14.440Z,3.80
2017-11-17T08:01:42.708Z,3.80
2017-11-17T08:04:10.890Z,3.90
2017-11-17T08:06:39.104Z,3.80
2017-11-17T08:09:07.293Z,3.70
2017-11-17T08:11:35.438Z,3.70
2017-11-17T08:14:04.688Z,3.70
2017-11-17T08:16:32.956Z,3.70
2017-11-17T08:19:01.958Z,4.10
2017-11-17T08:21:31.137Z,4.20
2017-11-17T08:24:02.939Z,4.10
2017-11-17T08:26:33.150Z,4.30
2017-11-17T08:29:01.451Z,4.40
2017-11-17T08:31:29.654Z,4.40
2017-11-17T08:33:58.814Z,4.30
2017-11-17T08:36:27.516Z,4.30
2017-11-17T08:38:55.666Z,4.30
2017-11-17T08:41:24.595Z,4.60
2017-11-17T08:43:52.747Z,4.50
2017-11-17T08:46:20.990Z,4.70
2017-11-17T08:48:49.233Z,4.80
2017-11-17T08:51:18.515Z,4.90
2017-11-17T08:53:46.867Z,5.00
2017-11-17T08:56:15.196Z,5.00
2017-11-17T08:58:44.220Z,5.30
2017-11-17T09:01:12.530Z,5.20
2017-11-17T09:03:40.846Z,5.40
2017-11-17T09:06:09.110Z,5.40
2017-11-17T09:08:37.359Z,5.50
2017-11-17T09:11:06.503Z,5.60
2017-11-17T09:13:34.761Z,5.60
2017-11-17T09:16:03.133Z,5.60
2017-11-17T09:18:31.373Z,5.70
2017-11-17T09:21:00.035Z,5.70
2017-11-17T09:23:28.262Z,5.90
2017-11-17T09:25:56.479Z,5.90
2017-11-17T09:28:25.237Z,6.10
2017-11-17T09:30:53.393Z,6.10
2017-11-17T09:33:21.553Z,6.00
2017-11-17T09:35:49.712Z,6.10
2017-11-17T09:38:17.884Z,6.00
2017-11-17T09:40:46.058Z,5.90
2017-11-17T09:43:17.912Z,6.00
2017-11-17T09:45:46.197Z,5.90
2017-11-17T09:48:14.382Z,5.80
2017-11-17T09:50:42.559Z,5.60
2017-11-17T09:53:10.815Z,5.60
2017-11-17T09:55:38.970Z,5.60
2017-11-17T09:58:07.418Z,5.40
2017-11-17T10:00:35.572Z,5.20
2017-11-17T10:03:03.730Z,5.10
2017-11-17T10:05:31.902Z,5.10
2017-11-17T10:08:00.079Z,5.20
2017-11-17T10:10:28.243Z,5.30
2017-11-17T10:12:57.265Z,5.50
2017-11-17T10:15:25.423Z,5.50
2017-11-17T10:17:53.593Z,5.50
2017-11-17T10:20:21.760Z,5.60
2017-11-17T10:22:49.923Z,5.60
2017-11-17T10:25:18.088Z,5.60
2017-11-17T10:27:46.261Z,5.60
2017-11-17T10:30:14.424Z,5.60
2017-11-17T10:32:43.358Z,5.80
2017-11-17T10:35:11.526Z,5.70
2017-11-17T10:37:39.673Z,5.80
2017-11-17T10:40:08.600Z,5.90
2017-11-17T10:42:36.839Z,6.00
2017-11-17T10:45:05.015Z,6.10
2017-11-17T10:47:33.217Z,6.20
2017-11-17T10:50:02.180Z,6.30
2017-11-17T10:52:30.350Z,6.30
2017-11-17T10:54:59.280Z,6.20
2017-11-17T10:57:27.451Z,6.20
2017-11-17T10:59:57.536Z,6.00
2017-11-17T11:02:25.866Z,6.00
2017-11-17T11:04:54.018Z,5.90
2017-11-17T11:07:22.247Z,5.80
2017-11-17T11:09:51.178Z,5.90
2017-11-17T11:12:19.359Z,5.80
2017-11-17T11:14:47.518Z,5.90
2017-11-17T11:17:17.006Z,6.00
2017-11-17T11:19:45.952Z,6.20
2017-11-17T11:22:14.131Z,6.20
2017-11-17T11:24:42.467Z,6.30
2017-11-17T11:27:11.568Z,6.40
2017-11-17T11:29:39.744Z,6.50
2017-11-17T11:32:07.915Z,6.60
2017-11-17T11:34:43.843Z,6.60
2017-11-17T11:37:12.860Z,6.70
2017-11-17T11:39:42.074Z,6.70
2017-11-17T11:42:10.231Z,6.80
2017-11-17T11:44:39.423Z,6.80
2017-11-17T11:47:07.605Z,6.80
2017-11-17T11:49:35.760Z,6.70
2017-11-17T11:52:03.915Z,6.70
2017-11-17T11:54:38.537Z,6.80
2017-11-17T11:57:06.695Z,6.80
2017-11-17T11:59:38.434Z,6.80
2017-11-17T12:02:06.591Z,6.80
2017-11-17T12:04:35.469Z,6.70
2017-11-17T12:07:03.647Z,6.80
2017-11-17T12:09:31.802Z,6.90
2017-11-17T12:11:59.973Z,7.00
2017-11-17T12:14:28.587Z,7.00
2017-11-17T12:16:56.797Z,7.00
2017-11-17T12:19:24.972Z,7.00
2017-11-17T12:21:53.147Z,7.00
2017-11-17T12:27:14.749Z,7.00
2017-11-17T12:29:43.018Z,6.90
2017-11-17T12:32:11.190Z,6.90
2017-11-17T12:34:40.370Z,6.90
2017-11-17T12:37:09.206Z,6.80
2017-11-17T12:39:37.377Z,6.90
2017-11-17T12:42:05.539Z,6.90
2017-11-17T12:44:33.697Z,6.90
2017-11-17T12:47:02.779Z,7.00
2017-11-17T12:49:31.715Z,7.10
2017-11-17T12:51:59.862Z,7.10
2017-11-17T12:54:29.085Z,7.00
2017-11-17T12:56:58.085Z,6.90
2017-11-17T12:59:26.251Z,6.90
2017-11-17T13:01:54.399Z,6.80
2017-11-17T13:04:22.559Z,6.80
2017-11-17T13:06:50.721Z,6.70
2017-11-17T13:09:19.646Z,6.60
2017-11-17T13:11:47.830Z,6.50
2017-11-17T13:14:19.773Z,6.50
2017-11-17T13:16:51.581Z,6.50
2017-11-17T13:19:20.368Z,6.50
2017-11-17T13:21:50.533Z,6.50
2017-11-17T13:24:22.352Z,6.50
2017-11-17T13:26:50.624Z,6.50
2017-11-17T13:29:20.204Z,6.50
2017-11-17T13:31:48.378Z,6.50
2017-11-17T13:34:16.830Z,6.40
2017-11-17T13:36:45.011Z,6.40
2017-11-17T13:39:13.185Z,6.30
2017-11-17T13:41:41.346Z,6.30
2017-11-17T13:44:14.130Z,6.20
2017-11-17T13:46:44.774Z,6.10
2017-11-17T13:49:13.094Z,6.10
2017-11-17T13:51:41.316Z,6.00
2017-11-17T13:54:10.323Z,6.00
2017-11-17T13:56:38.491Z,6.00
2017-11-17T13:59:06.716Z,6.00
2017-11-17T14:01:34.879Z,6.10
2017-11-17T14:04:03.119Z,6.20
2017-11-17T14:06:32.928Z,6.20
2017-11-17T14:09:01.090Z,6.30
2017-11-17T14:11:30.743Z,6.30
2017-11-17T14:14:02.791Z,6.30
2017-11-17T14:16:31.098Z,6.30
2017-11-17T14:19:00.082Z,6.30
2017-11-17T14:21:29.139Z,6.40
2017-11-17T14:23:57.953Z,6.50
2017-11-17T14:26:26.125Z,6.60
2017-11-17T14:28:54.296Z,6.60
2017-11-17T14:31:22.480Z,6.60
2017-11-17T14:33:50.650Z,6.60
2017-11-17T14:36:19.083Z,6.50
2017-11-17T14:38:47.837Z,6.50
2017-11-17T14:41:16.070Z,6.40
2017-11-17T14:43:44.352Z,6.40
2017-11-17T14:46:12.520Z,6.40
2017-11-17T14:48:41.260Z,6.40
2017-11-17T14:51:09.426Z,6.30
2017-11-17T14:53:37.936Z,6.20
2017-11-17T14:56:06.092Z,6.30
2017-11-17T14:58:34.553Z,6.30
2017-11-17T15:01:02.708Z,6.30
2017-11-17T15:03:31.168Z,6.40
2017-11-17T15:05:59.334Z,6.40
2017-11-17T15:08:28.312Z,6.40
2017-11-17T15:10:56.496Z,6.40
2017-11-17T15:13:25.551Z,6.30
2017-11-17T15:15:53.718Z,6.30
2017-11-17T15:18:21.892Z,6.20
2017-11-17T15:20:50.052Z,6.20
2017-11-17T15:23:19.080Z,6.30
2017-11-17T15:25:47.268Z,6.30
2017-11-17T15:28:15.427Z,6.30
2017-11-17T15:30:43.586Z,6.30
2017-11-17T15:33:12.734Z,6.20
2017-11-17T15:35:40.931Z,6.20
2017-11-17T15:38:09.882Z,6.20
2017-11-17T15:40:38.496Z,6.20
2017-11-17T15:43:12.882Z,6.20
2017-11-17T15:45:41.070Z,6.20
2017-11-17T15:48:15.003Z,6.30
2017-11-17T15:50:43.885Z,6.30
2017-11-17T15:53:15.817Z,6.30
2017-11-17T15:55:46.922Z,6.20
2017-11-17T15:58:15.900Z,6.20
2017-11-17T16:00:44.903Z,6.20
2017-11-17T16:03:13.162Z,6.20
2017-11-17T16:05:41.343Z,6.30
2017-11-17T16:08:09.513Z,6.30
2017-11-17T16:10:37.688Z,6.30
2017-11-17T16:13:07.609Z,6.30
2017-11-17T16:15:37.451Z,6.30
2017-11-17T16:18:05.610Z,6.30
2017-11-17T16:20:34.316Z,6.30
2017-11-17T16:23:03.380Z,6.40
2017-11-17T16:25:33.224Z,6.40
2017-11-17T16:28:01.397Z,6.40
2017-11-17T16:30:29.604Z,6.40
2017-11-17T16:32:58.702Z,6.20
2017-11-17T16:35:27.622Z,6.10
2017-11-17T16:37:56.700Z,6.10
2017-11-17T16:40:25.142Z,6.00
2017-11-17T16:42:53.989Z,5.90
2017-11-17T16:45:23.145Z,5.90
2017-11-17T16:47:51.319Z,5.90
2017-11-17T16:50:20.531Z,5.90
2017-11-17T16:52:49.750Z,6.00
2017-11-17T16:55:18.972Z,6.00
2017-11-17T16:57:47.141Z,6.00
2017-11-17T17:00:15.736Z,6.00
2017-11-17T17:02:43.883Z,6.00
2017-11-17T17:05:12.056Z,6.00
2017-11-17T17:07:40.237Z,5.90
2017-11-17T17:10:08.710Z,5.90
2017-11-17T17:12:36.915Z,5.80
2017-11-17T17:15:05.690Z,5.90
2017-11-17T17:17:33.893Z,5.90
2017-11-17T17:20:02.087Z,6.00
2017-11-17T17:22:30.242Z,6.00
2017-11-17T17:24:58.402Z,6.10
2017-11-17T17:27:28.303Z,6.20
2017-11-17T17:29:56.599Z,6.30
2017-11-17T17:32:25.609Z,6.30
2017-11-17T17:34:53.774Z,6.30
2017-11-17T17:37:21.924Z,6.30
2017-11-17T17:39:50.091Z,6.30
2017-11-17T17:42:18.249Z,6.30
2017-11-17T17:44:46.621Z,6.40
2017-11-17T17:47:14.783Z,6.40
2017-11-17T17:49:43.699Z,6.30
2017-11-17T17:52:12.798Z,6.30
2017-11-17T17:54:41.068Z,6.30
2017-11-17T17:57:09.212Z,6.30
2017-11-17T17:59:37.360Z,6.30
2017-11-17T18:02:05.532Z,6.30
2017-11-17T18:04:33.706Z,6.40
2017-11-17T18:07:01.894Z,6.40
2017-11-17T18:09:30.291Z,6.50
2017-11-17T18:11:58.456Z,6.50
2017-11-17T18:14:26.613Z,6.40
2017-11-17T18:16:54.780Z,6.40
2017-11-17T18:19:23.680Z,6.30
2017-11-17T18:21:51.859Z,6.30
2017-11-17T18:24:20.971Z,6.10
2017-11-17T18:26:49.963Z,5.90
2017-11-17T18:29:18.126Z,5.90
2017-11-17T18:31:46.344Z,5.80
2017-11-17T18:34:14.630Z,5.70
2017-11-17T18:36:42.858Z,5.70
2017-11-17T18:39:11.867Z,5.70
2017-11-17T18:41:40.066Z,5.70
2017-11-17T18:44:09.368Z,5.90
2017-11-17T18:46:37.576Z,5.90
2017-11-17T18:49:06.487Z,6.00
2017-11-17T18:51:34.702Z,5.90
2017-11-17T18:54:06.835Z,6.00
2017-11-17T18:56:35.109Z,6.00
2017-11-17T18:59:03.315Z,6.00
2017-11-17T19:01:32.270Z,6.10
2017-11-17T19:04:00.494Z,6.10
2017-11-17T19:06:28.675Z,6.10
2017-11-17T19:08:56.834Z,6.10
2017-11-17T19:11:25.080Z,6.20
2017-11-17T19:13:55.233Z,6.20
2017-11-17T19:16:23.442Z,6.20
2017-11-17T19:18:52.332Z,6.10
2017-11-17T19:21:20.504Z,6.10
2017-11-17T19:23:48.755Z,6.10
2017-11-17T19:26:16.906Z,6.10
2017-11-17T19:28:45.849Z,6.10
2017-11-17T19:31:14.022Z,6.10
2017-11-17T19:33:43.287Z,6.10
2017-11-17T19:36:12.300Z,6.10
2017-11-17T19:38:41.847Z,6.10
2017-11-17T19:41:10.258Z,6.10
2017-11-17T19:43:39.327Z,6.10
2017-11-17T19:46:07.494Z,6.10
2017-11-17T19:48:35.673Z,6.20
2017-11-17T19:51:03.859Z,6.20
2017-11-17T19:53:32.387Z,6.20
2017-11-17T19:56:00.555Z,6.20
2017-11-17T19:58:28.782Z,6.20
2017-11-17T20:00:56.953Z,6.20
2017-11-17T20:03:26.083Z,6.20
2017-11-17T20:05:55.175Z,6.10
2017-11-17T20:08:23.382Z,6.20
2017-11-17T20:10:52.201Z,6.20
2017-11-17T20:13:20.437Z,6.20
2017-11-17T20:15:49.353Z,6.20
2017-11-17T20:18:17.662Z,6.20
2017-11-17T20:20:45.813Z,6.20
2017-11-17T20:23:17.234Z,6.30
2017-11-17T20:25:45.540Z,6.30
2017-11-17T20:28:13.727Z,6.30
2017-11-17T20:30:43.214Z,6.20
2017-11-17T20:33:17.598Z,6.20
2017-11-17T20:35:49.534Z,6.20
2017-11-17T20:38:18.500Z,5.80
2017-11-17T20:40:46.670Z,5.80
2017-11-17T20:43:15.756Z,5.70
2017-11-17T20:45:46.281Z,5.70
2017-11-17T20:48:14.681Z,5.70
2017-11-17T20:50:42.835Z,5.50
2017-11-17T20:53:11.078Z,5.40
2017-11-17T20:55:39.260Z,5.40
2017-11-17T20:58:07.456Z,5.30
2017-11-17T21:00:35.603Z,5.30
2017-11-17T21:03:04.852Z,5.30
2017-11-17T21:05:33.019Z,5.30
2017-11-17T21:08:01.195Z,5.30
2017-11-17T21:10:29.405Z,5.30
2017-11-17T21:12:57.688Z,5.30
2017-11-17T21:15:25.870Z,5.30
2017-11-17T21:17:54.027Z,5.30
2017-11-17T21:20:22.942Z,5.20
2017-11-17T21:22:51.211Z,5.20
2017-11-17T21:25:19.387Z,5.10
2017-11-17T21:27:47.584Z,5.10
2017-11-17T21:30:16.465Z,5.10
2017-11-17T21:32:44.739Z,5.30
2017-11-17T21:35:12.907Z,5.40
2017-11-17T21:37:41.835Z,5.60
2017-11-17T21:40:10.958Z,5.60
2017-11-17T21:42:39.146Z,5.70
2017-11-17T21:45:08.158Z,5.80
2017-11-17T21:47:36.997Z,5.80
2017-11-17T21:50:05.159Z,5.70
2017-11-17T21:52:33.340Z,5.70
2017-11-17T21:55:01.532Z,5.70
2017-11-17T21:57:29.964Z,5.70
2017-11-17T21:59:59.669Z,5.60
2017-11-17T22:02:29.187Z,5.40
2017-11-17T22:04:57.431Z,5.30
2017-11-17T22:07:25.728Z,5.30
2017-11-17T22:09:53.903Z,5.40
2017-11-17T22:12:22.104Z,5.40
2017-11-17T22:14:50.490Z,5.40
2017-11-17T22:17:19.185Z,5.30
2017-11-17T22:19:47.419Z,5.30
2017-11-17T22:22:16.319Z,5.30
2017-11-17T22:24:46.603Z,5.30
2017-11-17T22:27:14.817Z,5.40
2017-11-17T22:29:42.969Z,5.50
2017-11-17T22:32:11.129Z,5.60
2017-11-17T22:34:39.410Z,5.70
2017-11-17T22:37:07.570Z,5.80
2017-11-17T22:39:36.521Z,5.90
2017-11-17T22:42:04.698Z,5.90
2017-11-17T22:44:32.972Z,5.90
2017-11-17T22:47:01.195Z,6.00
2017-11-17T22:49:29.378Z,6.00
2017-11-17T22:51:57.670Z,6.10
2017-11-17T22:54:26.858Z,6.20
2017-11-17T22:56:55.815Z,6.20
2017-11-17T22:59:24.755Z,6.30
2017-11-17T23:01:52.919Z,6.20
2017-11-17T23:04:21.193Z,6.30
2017-11-17T23:06:56.522Z,6.30
2017-11-17T23:09:24.904Z,6.40
2017-11-17T23:11:53.072Z,6.40
2017-11-17T23:14:22.003Z,6.40
2017-11-17T23:16:50.176Z,6.40
2017-11-17T23:19:18.349Z,6.40
2017-11-17T23:21:46.623Z,6.40
2017-11-17T23:24:14.880Z,6.30
2017-11-17T23:26:43.077Z,6.20
2017-11-17T23:29:11.339Z,6.10
2017-11-17T23:31:39.502Z,6.00
2017-11-17T23:34:11.389Z,5.90
2017-11-17T23:36:39.556Z,5.90
2017-11-17T23:39:07.755Z,6.00
2017-11-17T23:41:35.926Z,5.90
2017-11-17T23:44:04.075Z,5.80
2017-11-17T23:46:32.234Z,5.60
2017-11-17T23:49:00.524Z,5.60
2017-11-17T23:51:29.258Z,5.60
2017-11-17T23:54:00.846Z,5.60
2017-11-17T23:56:29.784Z,5.80
2017-11-17T23:58:58.194Z,5.70
